sensor_id;sensor_type;location;lat;lon;timestamp;pressure;altitude;pressure_sealevel;temperature;humidity
15272;BME280;7737;51.578;7.268;2023-03-29T00:01:22;101294.41;;;5.75;100.00
15272;BME280;7737;51.578;7.268;2023-03-29T00:03:50;101293.41;;;5.85;100.00
15272;BME280;7737;51.578;7.268;2023-03-29T00:06:19;101283.75;;;5.81;100.00
15272;BME280;7737;51.578;7.268;2023-03-29T00:08:47;101279.41;;;5.80;100.00
15272;BME280;7737;51.578;7.268;2023-03-29T00:11:18;101269.16;;;5.65;100.00
15272;BME280;7737;51.578;7.268;2023-03-29T00:13:46;101262.94;;;5.67;100.00
15272;BME280;7737;51.578;7.268;2023-03-29T00:16:12;101255.84;;;5.71;100.00
15272;BME280;7737;51.578;7.268;2023-03-29T00:18:39;101253.91;;;5.79;100.00
15272;BME280;7737;51.578;7.268;2023-03-29T00:21:05;101258.25;;;5.81;100.00
15272;BME280;7737;51.578;7.268;2023-03-29T00:23:33;101260.28;;;5.69;100.00
15272;BME280;7737;51.578;7.268;2023-03-29T00:26:00;101255.03;;;5.67;100.00
15272;BME280;7737;51.578;7.268;2023-03-29T00:28:27;101250.63;;;5.68;100.00
15272;BME280;7737;51.578;7.268;2023-03-29T00:31:03;101243.53;;;5.70;100.00
15272;BME280;7737;51.578;7.268;2023-03-29T00:33:30;101239.41;;;5.58;100.00
15272;BME280;7737;51.578;7.268;2023-03-29T00:35:57;101240.34;;;5.56;100.00
15272;BME280;7737;51.578;7.268;2023-03-29T00:38:23;101240.06;;;5.68;100.00
15272;BME280;7737;51.578;7.268;2023-03-29T00:40:51;101235.00;;;5.59;100.00
15272;BME280;7737;51.578;7.268;2023-03-29T00:43:18;101231.28;;;5.69;100.00
15272;BME280;7737;51.578;7.268;2023-03-29T00:45:44;101227.72;;;5.70;100.00
15272;BME280;7737;51.578;7.268;2023-03-29T00:48:13;101225.88;;;5.73;100.00
15272;BME280;7737;51.578;7.268;2023-03-29T00:50:42;101229.47;;;5.71;100.00
15272;BME280;7737;51.578;7.268;2023-03-29T00:53:14;101223.19;;;5.76;100.00
15272;BME280;7737;51.578;7.268;2023-03-29T00:55:46;101217.78;;;5.82;100.00
15272;BME280;7737;51.578;7.268;2023-03-29T00:58:21;101219.56;;;5.80;100.00
15272;BME280;7737;51.578;7.268;2023-03-29T01:00:51;101216.16;;;5.75;100.00
15272;BME280;7737;51.578;7.268;2023-03-29T01:03:20;101213.31;;;5.86;100.00
15272;BME280;7737;51.578;7.268;2023-03-29T01:05:55;101208.03;;;5.86;100.00
15272;BME280;7737;51.578;7.268;2023-03-29T01:08:26;101202.91;;;5.80;100.00
15272;BME280;7737;51.578;7.268;2023-03-29T01:10:58;101201.09;;;5.82;100.00
15272;BME280;7737;51.578;7.268;2023-03-29T01:13:33;101202.63;;;5.92;100.00
15272;BME280;7737;51.578;7.268;2023-03-29T01:16:05;101198.19;;;5.95;100.00
15272;BME280;7737;51.578;7.268;2023-03-29T01:18:33;101198.25;;;5.91;100.00
15272;BME280;7737;51.578;7.268;2023-03-29T01:21:13;101184.88;;;6.00;100.00
15272;BME280;7737;51.578;7.268;2023-03-29T01:23:57;101178.84;;;5.93;100.00
15272;BME280;7737;51.578;7.268;2023-03-29T01:26:38;101172.72;;;5.93;100.00
15272;BME280;7737;51.578;7.268;2023-03-29T01:29:12;101173.56;;;5.93;100.00
15272;BME280;7737;51.578;7.268;2023-03-29T01:31:44;101176.13;;;5.98;100.00
15272;BME280;7737;51.578;7.268;2023-03-29T01:34:15;101170.91;;;5.95;100.00
15272;BME280;7737;51.578;7.268;2023-03-29T01:36:48;101156.78;;;5.97;100.00
15272;BME280;7737;51.578;7.268;2023-03-29T01:39:19;101152.66;;;5.86;100.00
15272;BME280;7737;51.578;7.268;2023-03-29T01:41:56;101148.75;;;6.02;100.00
15272;BME280;7737;51.578;7.268;2023-03-29T01:44:30;101153.13;;;6.03;100.00
15272;BME280;7737;51.578;7.268;2023-03-29T01:47:07;101148.06;;;5.94;100.00
15272;BME280;7737;51.578;7.268;2023-03-29T01:49:39;101142.78;;;5.94;100.00
15272;BME280;7737;51.578;7.268;2023-03-29T01:52:12;101133.28;;;5.87;100.00
15272;BME280;7737;51.578;7.268;2023-03-29T01:54:46;101132.22;;;5.94;100.00
15272;BME280;7737;51.578;7.268;2023-03-29T01:57:15;101117.94;;;6.02;100.00
15272;BME280;7737;51.578;7.268;2023-03-29T01:59:45;101111.91;;;5.97;100.00
15272;BME280;7737;51.578;7.268;2023-03-29T02:02:15;101109.28;;;5.97;100.00
15272;BME280;7737;51.578;7.268;2023-03-29T02:04:45;101109.16;;;6.03;100.00
15272;BME280;7737;51.578;7.268;2023-03-29T02:07:15;101112.78;;;5.98;100.00
15272;BME280;7737;51.578;7.268;2023-03-29T02:09:44;101110.91;;;6.03;100.00
15272;BME280;7737;51.578;7.268;2023-03-29T02:12:11;101104.69;;;6.05;100.00
15272;BME280;7737;51.578;7.268;2023-03-29T02:14:39;101107.53;;;5.98;100.00
15272;BME280;7737;51.578;7.268;2023-03-29T02:17:18;101103.75;;;6.08;100.00
15272;BME280;7737;51.578;7.268;2023-03-29T02:19:46;101105.56;;;6.06;100.00
15272;BME280;7737;51.578;7.268;2023-03-29T02:22:19;101106.31;;;6.09;100.00
15272;BME280;7737;51.578;7.268;2023-03-29T02:24:51;101111.53;;;6.12;100.00
15272;BME280;7737;51.578;7.268;2023-03-29T02:27:23;101100.03;;;6.15;100.00
15272;BME280;7737;51.578;7.268;2023-03-29T02:29:50;101101.72;;;6.19;100.00
15272;BME280;7737;51.578;7.268;2023-03-29T02:32:20;101107.75;;;6.23;100.00
15272;BME280;7737;51.578;7.268;2023-03-29T02:34:53;101106.13;;;6.17;100.00
15272;BME280;7737;51.578;7.268;2023-03-29T02:37:24;101101.72;;;6.19;100.00
15272;BME280;7737;51.578;7.268;2023-03-29T02:39:55;101091.09;;;6.21;100.00
15272;BME280;7737;51.578;7.268;2023-03-29T02:42:23;101083.22;;;6.19;100.00
15272;BME280;7737;51.578;7.268;2023-03-29T02:44:54;101079.47;;;6.28;100.00
15272;BME280;7737;51.578;7.268;2023-03-29T02:47:29;101075.31;;;6.19;100.00
15272;BME280;7737;51.578;7.268;2023-03-29T02:49:56;101071.75;;;6.20;100.00
15272;BME280;7737;51.578;7.268;2023-03-29T02:52:27;101067.09;;;6.30;100.00
15272;BME280;7737;51.578;7.268;2023-03-29T02:54:58;101065.16;;;6.36;100.00
15272;BME280;7737;51.578;7.268;2023-03-29T02:57:27;101066.25;;;6.29;100.00
15272;BME280;7737;51.578;7.268;2023-03-29T02:59:56;101067.94;;;6.30;100.00
15272;BME280;7737;51.578;7.268;2023-03-29T03:02:25;101064.34;;;6.34;100.00
15272;BME280;7737;51.578;7.268;2023-03-29T03:04:52;101061.75;;;6.33;100.00
15272;BME280;7737;51.578;7.268;2023-03-29T03:07:18;101066.16;;;6.32;100.00
15272;BME280;7737;51.578;7.268;2023-03-29T03:09:45;101060.69;;;6.38;100.00
15272;BME280;7737;51.578;7.268;2023-03-29T03:12:12;101064.25;;;6.37;100.00
15272;BME280;7737;51.578;7.268;2023-03-29T03:14:38;101058.84;;;6.42;100.00
15272;BME280;7737;51.578;7.268;2023-03-29T03:17:05;101050.13;;;6.38;100.00
15272;BME280;7737;51.578;7.268;2023-03-29T03:19:33;101045.81;;;6.36;100.00
15272;BME280;7737;51.578;7.268;2023-03-29T03:22:00;101044.97;;;6.35;100.00
15272;BME280;7737;51.578;7.268;2023-03-29T03:24:27;101041.16;;;6.45;100.00
15272;BME280;7737;51.578;7.268;2023-03-29T03:26:53;101046.50;;;6.42;100.00
15272;BME280;7737;51.578;7.268;2023-03-29T03:29:21;101043.97;;;6.39;100.00
15272;BME280;7737;51.578;7.268;2023-03-29T03:31:47;101042.88;;;6.46;100.00
15272;BME280;7737;51.578;7.268;2023-03-29T03:34:14;101038.47;;;6.47;100.00
15272;BME280;7737;51.578;7.268;2023-03-29T03:36:41;101041.91;;;6.49;100.00
15272;BME280;7737;51.578;7.268;2023-03-29T03:39:08;101045.44;;;6.49;100.00
15272;BME280;7737;51.578;7.268;2023-03-29T03:41:36;101048.88;;;6.53;100.00
15272;BME280;7737;51.578;7.268;2023-03-29T03:44:02;101039.09;;;6.56;100.00
15272;BME280;7737;51.578;7.268;2023-03-29T03:46:29;101044.25;;;6.59;100.00
15272;BME280;7737;51.578;7.268;2023-03-29T03:48:55;101037.09;;;6.64;100.00
15272;BME280;7737;51.578;7.268;2023-03-29T03:51:23;101038.81;;;6.65;100.00
15272;BME280;7737;51.578;7.268;2023-03-29T03:53:51;101037.84;;;6.68;100.00
15272;BME280;7737;51.578;7.268;2023-03-29T03:56:18;101036.81;;;6.73;100.00
15272;BME280;7737;51.578;7.268;2023-03-29T03:58:44;101038.56;;;6.74;100.00
15272;BME280;7737;51.578;7.268;2023-03-29T04:01:11;101042.91;;;6.77;100.00
15272;BME280;7737;51.578;7.268;2023-03-29T04:03:38;101047.38;;;6.73;100.00
15272;BME280;7737;51.578;7.268;2023-03-29T04:06:05;101046.56;;;6.71;100.00
15272;BME280;7737;51.578;7.268;2023-03-29T04:08:31;101050.94;;;6.72;100.00
15272;BME280;7737;51.578;7.268;2023-03-29T04:11:00;101052.84;;;6.67;100.00
15272;BME280;7737;51.578;7.268;2023-03-29T04:13:26;101064.28;;;6.68;100.00
15272;BME280;7737;51.578;7.268;2023-03-29T04:15:53;101052.94;;;6.64;100.00
15272;BME280;7737;51.578;7.268;2023-03-29T04:18:21;101054.81;;;6.61;100.00
15272;BME280;7737;51.578;7.268;2023-03-29T04:20:48;101055.69;;;6.60;100.00
15272;BME280;7737;51.578;7.268;2023-03-29T04:23:15;101056.66;;;6.57;100.00
15272;BME280;7737;51.578;7.268;2023-03-29T04:25:41;101057.47;;;6.59;100.00
15272;BME280;7737;51.578;7.268;2023-03-29T04:28:10;101052.25;;;6.58;100.00
15272;BME280;7737;51.578;7.268;2023-03-29T04:30:37;101044.44;;;6.53;100.00
15272;BME280;7737;51.578;7.268;2023-03-29T04:33:03;101051.38;;;6.57;100.00
15272;BME280;7737;51.578;7.268;2023-03-29T04:35:30;101047.03;;;6.55;100.00
15272;BME280;7737;51.578;7.268;2023-03-29T04:37:57;101041.72;;;6.56;100.00
15272;BME280;7737;51.578;7.268;2023-03-29T04:40:24;101043.31;;;6.62;100.00
15272;BME280;7737;51.578;7.268;2023-03-29T04:42:50;101052.31;;;6.55;100.00
15272;BME280;7737;51.578;7.268;2023-03-29T04:45:19;101046.09;;;6.57;100.00
15272;BME280;7737;51.578;7.268;2023-03-29T04:47:46;101044.25;;;6.59;100.00
15272;BME280;7737;51.578;7.268;2023-03-29T04:50:13;101029.25;;;6.61;100.00
15272;BME280;7737;51.578;7.268;2023-03-29T04:52:40;101028.25;;;6.65;100.00
15272;BME280;7737;51.578;7.268;2023-03-29T04:55:07;101032.94;;;6.56;100.00
15272;BME280;7737;51.578;7.268;2023-03-29T04:57:34;101033.59;;;6.64;100.00
15272;BME280;7737;51.578;7.268;2023-03-29T05:00:01;101031.06;;;6.59;100.00
15272;BME280;7737;51.578;7.268;2023-03-29T05:02:33;101028.34;;;6.62;100.00
15272;BME280;7737;51.578;7.268;2023-03-29T05:05:00;101028.41;;;6.59;100.00
15272;BME280;7737;51.578;7.268;2023-03-29T05:07:28;101031.69;;;6.67;100.00
15272;BME280;7737;51.578;7.268;2023-03-29T05:09:54;101030.88;;;6.65;100.00
15272;BME280;7737;51.578;7.268;2023-03-29T05:12:21;101036.16;;;6.65;100.00
15272;BME280;7737;51.578;7.268;2023-03-29T05:14:47;101036.91;;;6.70;100.00
15272;BME280;7737;51.578;7.268;2023-03-29T05:17:14;101039.53;;;6.70;100.00
15272;BME280;7737;51.578;7.268;2023-03-29T05:19:42;101041.16;;;6.76;100.00
15272;BME280;7737;51.578;7.268;2023-03-29T05:22:08;101025.22;;;6.79;100.00
15272;BME280;7737;51.578;7.268;2023-03-29T05:24:35;101029.72;;;6.75;100.00
15272;BME280;7737;51.578;7.268;2023-03-29T05:27:02;101026.16;;;6.77;100.00
15272;BME280;7737;51.578;7.268;2023-03-29T05:29:29;101025.22;;;6.79;100.00
15272;BME280;7737;51.578;7.268;2023-03-29T05:31:57;101022.63;;;6.78;100.00
15272;BME280;7737;51.578;7.268;2023-03-29T05:34:24;101024.44;;;6.75;100.00
15272;BME280;7737;51.578;7.268;2023-03-29T05:36:52;101021.75;;;6.77;100.00
15272;BME280;7737;51.578;7.268;2023-03-29T05:39:18;101031.50;;;6.75;100.00
15272;BME280;7737;51.578;7.268;2023-03-29T05:41:45;101025.34;;;6.74;100.00
15272;BME280;7737;51.578;7.268;2023-03-29T05:44:11;101021.88;;;6.72;100.00
15272;BME280;7737;51.578;7.268;2023-03-29T05:46:38;101035.91;;;6.74;100.00
15272;BME280;7737;51.578;7.268;2023-03-29T05:49:04;101027.22;;;6.71;100.00
15272;BME280;7737;51.578;7.268;2023-03-29T05:51:31;101024.44;;;6.75;100.00
15272;BME280;7737;51.578;7.268;2023-03-29T05:53:59;101023.59;;;6.75;100.00
15272;BME280;7737;51.578;7.268;2023-03-29T05:56:26;101034.75;;;6.85;100.00
15272;BME280;7737;51.578;7.268;2023-03-29T05:58:52;101024.16;;;6.85;100.00
15272;BME280;7737;51.578;7.268;2023-03-29T06:01:20;101031.38;;;6.80;100.00
15272;BME280;7737;51.578;7.268;2023-03-29T06:03:48;101024.09;;;6.88;100.00
15272;BME280;7737;51.578;7.268;2023-03-29T06:06:15;101028.25;;;6.95;100.00
15272;BME280;7737;51.578;7.268;2023-03-29T06:08:43;101015.84;;;6.98;100.00
15272;BME280;7737;51.578;7.268;2023-03-29T06:11:12;101007.69;;;7.06;100.00
15272;BME280;7737;51.578;7.268;2023-03-29T06:13:39;101004.22;;;7.04;100.00
15272;BME280;7737;51.578;7.268;2023-03-29T06:16:07;101016.41;;;7.08;100.00
15272;BME280;7737;51.578;7.268;2023-03-29T06:18:34;101017.03;;;7.16;100.00
15272;BME280;7737;51.578;7.268;2023-03-29T06:21:02;101014.31;;;7.19;100.00
15272;BME280;7737;51.578;7.268;2023-03-29T06:23:29;101014.03;;;7.28;100.00
15272;BME280;7737;51.578;7.268;2023-03-29T06:25:56;101010.38;;;7.32;100.00
15272;BME280;7737;51.578;7.268;2023-03-29T06:28:25;101019.03;;;7.37;100.00
15272;BME280;7737;51.578;7.268;2023-03-29T06:30:52;101005.94;;;7.32;100.00
15272;BME280;7737;51.578;7.268;2023-03-29T06:33:20;101005.91;;;7.34;100.00
15272;BME280;7737;51.578;7.268;2023-03-29T06:35:48;101005.00;;;7.35;100.00
15272;BME280;7737;51.578;7.268;2023-03-29T06:38:15;101001.53;;;7.33;100.00
15272;BME280;7737;51.578;7.268;2023-03-29T06:40:42;101003.16;;;7.37;100.00
15272;BME280;7737;51.578;7.268;2023-03-29T06:43:09;101000.94;;;7.51;100.00
15272;BME280;7737;51.578;7.268;2023-03-29T06:45:39;101008.88;;;7.51;100.00
15272;BME280;7737;51.578;7.268;2023-03-29T06:48:06;101011.44;;;7.54;100.00
15272;BME280;7737;51.578;7.268;2023-03-29T06:50:33;101016.56;;;7.59;100.00
15272;BME280;7737;51.578;7.268;2023-03-29T06:53:00;101019.75;;;7.68;100.00
15272;BME280;7737;51.578;7.268;2023-03-29T06:55:27;101019.47;;;7.77;100.00
15272;BME280;7737;51.578;7.268;2023-03-29T06:57:53;101030.16;;;7.74;100.00
15272;BME280;7737;51.578;7.268;2023-03-29T07:00:20;101020.13;;;7.84;100.00
15272;BME280;7737;51.578;7.268;2023-03-29T07:02:53;101034.38;;;7.80;100.00
15272;BME280;7737;51.578;7.268;2023-03-29T07:05:20;101033.22;;;7.88;100.00
15272;BME280;7737;51.578;7.268;2023-03-29T07:07:48;101027.81;;;7.91;100.00
15272;BME280;7737;51.578;7.268;2023-03-29T07:10:25;101020.63;;;7.95;100.00
15272;BME280;7737;51.578;7.268;2023-03-29T07:12:56;101019.53;;;8.02;100.00
15272;BME280;7737;51.578;7.268;2023-03-29T07:15:23;101006.00;;;8.10;100.00
15272;BME280;7737;51.578;7.268;2023-03-29T07:17:50;101005.91;;;8.13;100.00
15272;BME280;7737;51.578;7.268;2023-03-29T07:20:19;101007.41;;;8.20;100.00
15272;BME280;7737;51.578;7.268;2023-03-29T07:22:48;101014.31;;;8.24;100.00
15272;BME280;7737;51.578;7.268;2023-03-29T07:25:16;101012.41;;;8.29;100.00
15272;BME280;7737;51.578;7.268;2023-03-29T07:27:43;101011.38;;;8.33;100.00
15272;BME280;7737;51.578;7.268;2023-03-29T07:30:13;101006.03;;;8.34;100.00
15272;BME280;7737;51.578;7.268;2023-03-29T07:32:41;101015.66;;;8.37;100.00
15272;BME280;7737;51.578;7.268;2023-03-29T07:35:09;101008.28;;;8.45;100.00
15272;BME280;7737;51.578;7.268;2023-03-29T07:37:39;101014.28;;;8.50;100.00
15272;BME280;7737;51.578;7.268;2023-03-29T07:40:08;101021.25;;;8.52;100.00
15272;BME280;7737;51.578;7.268;2023-03-29T07:42:37;101013.84;;;8.62;100.00
15272;BME280;7737;51.578;7.268;2023-03-29T07:45:05;101012.88;;;8.65;100.00
15272;BME280;7737;51.578;7.268;2023-03-29T07:47:32;101016.16;;;8.71;100.00
15272;BME280;7737;51.578;7.268;2023-03-29T07:49:59;101026.75;;;8.71;100.00
15272;BME280;7737;51.578;7.268;2023-03-29T07:52:26;101022.22;;;8.75;100.00
15272;BME280;7737;51.578;7.268;2023-03-29T07:54:55;101023.84;;;8.79;100.00
15272;BME280;7737;51.578;7.268;2023-03-29T07:57:22;101024.69;;;8.79;100.00
15272;BME280;7737;51.578;7.268;2023-03-29T07:59:49;101021.00;;;8.83;100.00
15272;BME280;7737;51.578;7.268;2023-03-29T08:02:16;101020.78;;;8.89;100.00
15272;BME280;7737;51.578;7.268;2023-03-29T08:04:43;101010.19;;;8.89;100.00
15272;BME280;7737;51.578;7.268;2023-03-29T08:07:10;101011.84;;;8.92;100.00
15272;BME280;7737;51.578;7.268;2023-03-29T08:09:37;101003.22;;;9.08;100.00
15272;BME280;7737;51.578;7.268;2023-03-29T08:12:06;101006.28;;;9.21;100.00
15272;BME280;7737;51.578;7.268;2023-03-29T08:14:33;101000.22;;;9.17;100.00
15272;BME280;7737;51.578;7.268;2023-03-29T08:17:01;101002.47;;;9.28;100.00
15272;BME280;7737;51.578;7.268;2023-03-29T08:19:27;101000.56;;;9.32;100.00
15272;BME280;7737;51.578;7.268;2023-03-29T08:21:54;100993.28;;;9.37;100.00
15272;BME280;7737;51.578;7.268;2023-03-29T08:24:20;100981.13;;;9.53;100.00
15272;BME280;7737;51.578;7.268;2023-03-29T08:26:47;100985.47;;;9.54;100.00
15272;BME280;7737;51.578;7.268;2023-03-29T08:29:15;100987.22;;;9.55;100.00
15272;BME280;7737;51.578;7.268;2023-03-29T08:31:41;100989.63;;;9.61;100.00
15272;BME280;7737;51.578;7.268;2023-03-29T08:34:08;100982.47;;;9.63;100.00
15272;BME280;7737;51.578;7.268;2023-03-29T08:36:35;100982.34;;;9.66;100.00
15272;BME280;7737;51.578;7.268;2023-03-29T08:39:01;100982.47;;;9.63;100.00
15272;BME280;7737;51.578;7.268;2023-03-29T08:41:36;100976.03;;;9.68;100.00
15272;BME280;7737;51.578;7.268;2023-03-29T08:44:22;100976.88;;;9.69;100.00
15272;BME280;7737;51.578;7.268;2023-03-29T08:46:56;100973.19;;;9.73;100.00
15272;BME280;7737;51.578;7.268;2023-03-29T08:49:24;100972.06;;;9.78;100.00
15272;BME280;7737;51.578;7.268;2023-03-29T08:51:53;100974.91;;;9.74;100.00
15272;BME280;7737;51.578;7.268;2023-03-29T08:54:24;100973.72;;;9.81;100.00
15272;BME280;7737;51.578;7.268;2023-03-29T08:57:03;100975.72;;;9.96;100.00
15272;BME280;7737;51.578;7.268;2023-03-29T08:59:34;100968.69;;;9.95;100.00
15272;BME280;7737;51.578;7.268;2023-03-29T09:02:02;100970.81;;;9.87;100.00
15272;BME280;7737;51.578;7.268;2023-03-29T09:04:32;100970.03;;;10.05;100.00
15272;BME280;7737;51.578;7.268;2023-03-29T09:07:01;100976.22;;;10.06;100.00
15272;BME280;7737;51.578;7.268;2023-03-29T09:09:31;100971.06;;;10.01;100.00
15272;BME280;7737;51.578;7.268;2023-03-29T09:12:08;100973.84;;;9.98;100.00
15272;BME280;7737;51.578;7.268;2023-03-29T09:14:50;100992.66;;;9.94;100.00
15272;BME280;7737;51.578;7.268;2023-03-29T09:17:29;100990.44;;;9.83;100.00
15272;BME280;7737;51.578;7.268;2023-03-29T09:20:05;100997.75;;;9.98;100.00
15272;BME280;7737;51.578;7.268;2023-03-29T09:22:39;101002.53;;;9.90;100.00
15272;BME280;7737;51.578;7.268;2023-03-29T09:25:12;100998.03;;;9.92;100.00
15272;BME280;7737;51.578;7.268;2023-03-29T09:27:48;101009.69;;;9.88;100.00
15272;BME280;7737;51.578;7.268;2023-03-29T09:30:19;101000.28;;;9.81;100.00
15272;BME280;7737;51.578;7.268;2023-03-29T09:32:51;101000.72;;;9.70;100.00
15272;BME280;7737;51.578;7.268;2023-03-29T09:35:21;100998.53;;;9.80;100.00
15272;BME280;7737;51.578;7.268;2023-03-29T09:37:49;101004.00;;;9.97;100.00
15272;BME280;7737;51.578;7.268;2023-03-29T09:40:19;101000.16;;;10.04;100.00
15272;BME280;7737;51.578;7.268;2023-03-29T09:42:48;101005.47;;;10.04;100.00
15272;BME280;7737;51.578;7.268;2023-03-29T09:45:17;101005.00;;;10.16;100.00
15272;BME280;7737;51.578;7.268;2023-03-29T09:47:47;100998.84;;;10.14;100.00
15272;BME280;7737;51.578;7.268;2023-03-29T09:50:18;100979.88;;;10.23;100.00
15272;BME280;7737;51.578;7.268;2023-03-29T09:52:47;100971.16;;;10.40;100.00
15272;BME280;7737;51.578;7.268;2023-03-29T09:55:15;100967.22;;;10.49;100.00
15272;BME280;7737;51.578;7.268;2023-03-29T09:57:43;100972.78;;;10.63;100.00
15272;BME280;7737;51.578;7.268;2023-03-29T10:00:11;100972.72;;;10.83;100.00
15272;BME280;7737;51.578;7.268;2023-03-29T10:02:39;100975.22;;;10.86;100.00
15272;BME280;7737;51.578;7.268;2023-03-29T10:05:06;100980.28;;;10.92;100.00
15272;BME280;7737;51.578;7.268;2023-03-29T10:07:38;100977.03;;;11.04;100.00
15272;BME280;7737;51.578;7.268;2023-03-29T10:10:09;100978.13;;;11.00;100.00
15272;BME280;7737;51.578;7.268;2023-03-29T10:12:36;100978.84;;;11.04;100.00
15272;BME280;7737;51.578;7.268;2023-03-29T10:15:04;100962.16;;;11.00;100.00
15272;BME280;7737;51.578;7.268;2023-03-29T10:17:37;100959.63;;;10.97;100.00
15272;BME280;7737;51.578;7.268;2023-03-29T10:20:13;100960.13;;;11.05;100.00
15272;BME280;7737;51.578;7.268;2023-03-29T10:22:46;100952.22;;;11.22;100.00
15272;BME280;7737;51.578;7.268;2023-03-29T10:25:14;100946.63;;;11.62;100.00
15272;BME280;7737;51.578;7.268;2023-03-29T10:27:43;100945.78;;;11.81;100.00
15272;BME280;7737;51.578;7.268;2023-03-29T10:30:16;100945.84;;;11.60;100.00
15272;BME280;7737;51.578;7.268;2023-03-29T10:32:44;100939.81;;;11.57;100.00
15272;BME280;7737;51.578;7.268;2023-03-29T10:35:23;100942.56;;;11.55;100.00
15272;BME280;7737;51.578;7.268;2023-03-29T10:37:51;100952.09;;;11.42;100.00
15272;BME280;7737;51.578;7.268;2023-03-29T10:40:25;100947.50;;;11.46;100.00
15272;BME280;7737;51.578;7.268;2023-03-29T10:42:57;100949.94;;;11.50;100.00
15272;BME280;7737;51.578;7.268;2023-03-29T10:45:26;100946.22;;;11.72;100.00
15272;BME280;7737;51.578;7.268;2023-03-29T10:47:54;100943.03;;;11.63;100.00
15272;BME280;7737;51.578;7.268;2023-03-29T10:50:23;100945.28;;;11.73;100.00
15272;BME280;7737;51.578;7.268;2023-03-29T10:52:51;100938.84;;;11.77;100.00
15272;BME280;7737;51.578;7.268;2023-03-29T10:55:18;100949.25;;;11.64;100.00
15272;BME280;7737;51.578;7.268;2023-03-29T10:57:56;100947.44;;;11.65;100.00
15272;BME280;7737;51.578;7.268;2023-03-29T11:00:31;100948.19;;;11.49;100.00
15272;BME280;7737;51.578;7.268;2023-03-29T11:03:16;100954.94;;;11.56;100.00
15272;BME280;7737;51.578;7.268;2023-03-29T11:05:53;100945.44;;;11.70;100.00
15272;BME280;7737;51.578;7.268;2023-03-29T11:08:40;100945.06;;;11.58;100.00
15272;BME280;7737;51.578;7.268;2023-03-29T11:11:16;100937.72;;;11.63;100.00
15272;BME280;7737;51.578;7.268;2023-03-29T11:13:52;100943.56;;;11.72;100.00
15272;BME280;7737;51.578;7.268;2023-03-29T11:16:27;100929.44;;;11.87;100.00
15272;BME280;7737;51.578;7.268;2023-03-29T11:19:11;100917.16;;;12.01;100.00
15272;BME280;7737;51.578;7.268;2023-03-29T11:21:50;100911.22;;;12.29;100.00
15272;BME280;7737;51.578;7.268;2023-03-29T11:24:26;100900.56;;;12.45;100.00
15272;BME280;7737;51.578;7.268;2023-03-29T11:27:03;100889.72;;;12.80;100.00
15272;BME280;7737;51.578;7.268;2023-03-29T11:29:41;100883.59;;;12.94;100.00
15272;BME280;7737;51.578;7.268;2023-03-29T11:32:13;100887.66;;;13.17;100.00
15272;BME280;7737;51.578;7.268;2023-03-29T11:34:49;100883.16;;;13.17;100.00
15272;BME280;7737;51.578;7.268;2023-03-29T11:37:27;100877.06;;;13.15;100.00
15272;BME280;7737;51.578;7.268;2023-03-29T11:40:05;100865.53;;;13.15;100.00
15272;BME280;7737;51.578;7.268;2023-03-29T11:42:40;100858.63;;;13.11;100.00
15272;BME280;7737;51.578;7.268;2023-03-29T11:45:12;100855.16;;;13.24;100.00
15272;BME280;7737;51.578;7.268;2023-03-29T11:47:40;100853.69;;;13.19;100.00
15272;BME280;7737;51.578;7.268;2023-03-29T11:50:14;100849.94;;;13.37;100.00
15272;BME280;7737;51.578;7.268;2023-03-29T11:52:48;100846.00;;;13.44;100.00
15272;BME280;7737;51.578;7.268;2023-03-29T11:55:18;100826.53;;;13.42;100.00
15272;BME280;7737;51.578;7.268;2023-03-29T11:57:51;100827.41;;;13.57;100.00
15272;BME280;7737;51.578;7.268;2023-03-29T12:00:22;100824.84;;;13.55;100.00
15272;BME280;7737;51.578;7.268;2023-03-29T12:02:54;100824.50;;;13.75;100.00
15272;BME280;7737;51.578;7.268;2023-03-29T12:05:26;100806.84;;;14.15;100.00
15272;BME280;7737;51.578;7.268;2023-03-29T12:08:02;100776.53;;;14.57;100.00
15272;BME280;7737;51.578;7.268;2023-03-29T12:10:33;100778.66;;;14.52;100.00
15272;BME280;7737;51.578;7.268;2023-03-29T12:13:04;100761.03;;;14.62;100.00
15272;BME280;7737;51.578;7.268;2023-03-29T12:15:35;100760.88;;;14.51;100.00
15272;BME280;7737;51.578;7.268;2023-03-29T12:18:09;100760.06;;;15.16;100.00
15272;BME280;7737;51.578;7.268;2023-03-29T12:20:39;100752.44;;;15.36;100.00
15272;BME280;7737;51.578;7.268;2023-03-29T12:23:11;100750.34;;;15.41;100.00
15272;BME280;7737;51.578;7.268;2023-03-29T12:25:45;100755.56;;;15.30;100.00
15272;BME280;7737;51.578;7.268;2023-03-29T12:28:28;100761.16;;;14.87;100.00
15272;BME280;7737;51.578;7.268;2023-03-29T12:31:04;100757.69;;;14.85;100.00
15272;BME280;7737;51.578;7.268;2023-03-29T12:33:46;100749.56;;;15.39;100.00
15272;BME280;7737;51.578;7.268;2023-03-29T12:36:29;100741.13;;;15.45;100.00
15272;BME280;7737;51.578;7.268;2023-03-29T12:39:02;100728.34;;;15.23;100.00
15272;BME280;7737;51.578;7.268;2023-03-29T12:41:34;100738.63;;;15.29;100.00
15272;BME280;7737;51.578;7.268;2023-03-29T12:44:02;100733.94;;;15.33;100.00
15272;BME280;7737;51.578;7.268;2023-03-29T12:46:31;100737.38;;;15.35;100.00
15272;BME280;7737;51.578;7.268;2023-03-29T12:49:00;100737.78;;;15.29;100.00
15272;BME280;7737;51.578;7.268;2023-03-29T12:51:34;100733.28;;;15.16;100.00
15272;BME280;7737;51.578;7.268;2023-03-29T12:54:05;100740.97;;;15.08;100.00
15272;BME280;7737;51.578;7.268;2023-03-29T12:56:35;100742.56;;;14.98;100.00
15272;BME280;7737;51.578;7.268;2023-03-29T12:59:14;100746.91;;;14.87;100.00
15272;BME280;7737;51.578;7.268;2023-03-29T13:01:55;100744.06;;;14.76;100.00
15272;BME280;7737;51.578;7.268;2023-03-29T13:04:35;100738.53;;;14.52;100.00
15272;BME280;7737;51.578;7.268;2023-03-29T13:07:03;100743.69;;;14.55;100.00
15272;BME280;7737;51.578;7.268;2023-03-29T13:09:34;100762.75;;;14.36;100.00
15272;BME280;7737;51.578;7.268;2023-03-29T13:12:16;100763.28;;;14.27;100.00